Time;durP1;ratioP1;P1;durP2;ratioP2;P2;SDS_P1;SDS_P2;PMS_P1;PMS_P2;Temp;Humidity;BMP_temperature;BMP_pressure;BME280_temperature;BME280_humidity;BME280_pressure;Samples;Min_cycle;Max_cycle;Signal;HPM_P1;HPM_P2
2023/06/29 00:00:57;;;;;;;21.40;18.15;;;;;;;20.79;86.14;101511.19;5114095;28;20076;-62
2023/06/29 00:03:22;;;;;;;23.88;19.15;;;;;;;20.67;86.22;101502.41;5113741;28;20023;-62
2023/06/29 00:05:50;;;;;;;23.60;19.80;;;;;;;20.64;86.73;101517.06;5114098;28;20029;-62
2023/06/29 00:08:15;;;;;;;23.63;18.92;;;;;;;20.64;85.82;101508.94;5094139;28;20818;-62
2023/06/29 00:10:41;;;;;;;24.27;19.35;;;;;;;20.59;86.48;101505.00;5095850;28;20118;-62
2023/06/29 00:13:07;;;;;;;24.02;20.00;;;;;;;20.64;86.43;101494.59;5110053;28;20028;-62
2023/06/29 00:15:32;;;;;;;25.65;18.95;;;;;;;20.53;86.30;101484.81;5099651;28;20420;-62
2023/06/29 00:17:59;;;;;;;23.08;19.17;;;;;;;20.62;86.04;101492.03;5095011;28;20028;-62
2023/06/29 00:20:28;;;;;;;23.13;18.70;;;;;;;20.58;86.45;101487.06;5113789;28;20030;-62
2023/06/29 00:22:54;;;;;;;25.92;19.90;;;;;;;20.61;85.59;101484.06;5113656;28;20438;-61
2023/06/29 00:25:19;;;;;;;27.75;20.58;;;;;;;20.57;85.68;101486.22;5112954;28;20054;-62
2023/06/29 00:27:44;;;;;;;24.05;19.60;;;;;;;20.59;85.56;101483.38;5113912;27;20023;-62
2023/06/29 00:30:10;;;;;;;23.45;19.75;;;;;;;20.59;84.80;101480.69;5113601;28;20432;-62
2023/06/29 00:32:36;;;;;;;22.90;18.90;;;;;;;20.43;85.71;101473.13;5113749;28;20047;-62
2023/06/29 00:35:01;;;;;;;25.48;20.00;;;;;;;20.43;85.65;101471.28;5113359;28;20534;-62
2023/06/29 00:37:26;;;;;;;22.52;18.48;;;;;;;20.54;85.03;101480.25;5112862;28;20024;-62
2023/06/29 00:39:52;;;;;;;23.33;17.60;;;;;;;20.58;85.26;101476.25;5112710;28;20389;-62
2023/06/29 00:42:17;;;;;;;23.83;17.83;;;;;;;20.50;85.47;101471.56;5113383;28;20107;-62
2023/06/29 00:44:43;;;;;;;23.33;18.70;;;;;;;20.60;84.71;101474.25;5095650;28;20039;-62
2023/06/29 00:47:08;;;;;;;35.22;31.45;;;;;;;20.48;84.93;101476.25;5113009;28;20039;-62
2023/06/29 00:49:34;;;;;;;34.85;24.80;;;;;;;20.48;84.70;101470.00;5095016;28;20146;-62
2023/06/29 00:52:02;;;;;;;30.38;22.88;;;;;;;20.51;85.08;101472.41;5094609;28;20035;-62
2023/06/29 00:54:27;;;;;;;27.70;21.48;;;;;;;20.51;85.82;101475.97;5112513;28;20075;-62
2023/06/29 00:56:58;;;;;;;27.58;21.60;;;;;;;20.43;85.63;101470.41;5112984;28;20673;-62
2023/06/29 00:59:24;;;;;;;27.50;22.83;;;;;;;20.45;86.02;101459.47;5112740;28;20028;-62
2023/06/29 01:01:51;;;;;;;27.00;21.15;;;;;;;20.47;86.81;101460.16;5095080;28;20124;-62
2023/06/29 01:04:24;;;;;;;26.38;22.35;;;;;;;20.39;85.46;101461.75;5112664;28;20016;-62
2023/06/29 01:06:57;;;;;;;27.00;22.65;;;;;;;20.41;85.36;101459.78;5112560;28;20123;-62
2023/06/29 01:09:24;;;;;;;27.55;20.80;;;;;;;20.45;86.97;101462.19;5112235;28;20027;-62
2023/06/29 01:11:51;;;;;;;27.92;22.92;;;;;;;20.39;86.04;101463.63;5112714;28;20077;-62
2023/06/29 01:14:17;;;;;;;27.65;23.42;;;;;;;20.38;85.13;101465.47;5112483;28;20020;-62
2023/06/29 01:16:43;;;;;;;26.30;21.85;;;;;;;20.33;85.53;101459.66;5110973;28;20020;-62
2023/06/29 01:19:13;;;;;;;27.23;22.67;;;;;;;20.38;85.47;101470.00;5111549;28;20043;-62
2023/06/29 01:21:51;;;;;;;27.63;21.58;;;;;;;20.32;86.53;101465.19;5112790;28;20020;-62
2023/06/29 01:24:19;;;;;;;24.27;20.97;;;;;;;20.35;85.73;101463.06;5112156;28;20390;-62
2023/06/29 01:26:47;;;;;;;29.17;21.63;;;;;;;20.30;86.04;101450.97;5094164;28;20027;-62
2023/06/29 01:29:15;;;;;;;24.58;21.52;;;;;;;20.32;86.08;101452.50;5112547;28;20024;-62
2023/06/29 01:31:41;;;;;;;25.02;20.65;;;;;;;20.34;86.42;101445.13;5112219;28;20023;-62
2023/06/29 01:34:07;;;;;;;26.13;20.90;;;;;;;20.34;86.51;101445.13;5112924;28;20018;-62
2023/06/29 01:36:43;;;;;;;23.55;20.83;;;;;;;20.33;86.24;101448.00;5093872;28;20114;-62
2023/06/29 01:39:17;;;;;;;26.83;20.88;;;;;;;20.25;85.48;101437.06;5093498;28;20102;-62
2023/06/29 01:41:44;;;;;;;27.20;21.27;;;;;;;20.25;85.75;101437.06;5112598;28;20023;-62
2023/06/29 01:44:15;;;;;;;27.95;22.30;;;;;;;20.25;85.95;101435.19;5112191;28;20463;-62
2023/06/29 01:46:42;;;;;;;27.67;20.10;;;;;;;20.32;85.98;101428.19;5112272;28;20051;-62
2023/06/29 01:49:10;;;;;;;24.10;21.23;;;;;;;20.33;85.28;101435.31;5112476;28;20030;-62
2023/06/29 01:51:36;;;;;;;24.30;20.00;;;;;;;20.26;87.37;101434.19;5119692;27;20047;-62
2023/06/29 01:54:02;;;;;;;23.35;20.05;;;;;;;20.30;86.38;101434.78;5132376;28;20080;-62
2023/06/29 01:56:28;;;;;;;22.35;20.00;;;;;;;20.32;85.98;101430.91;5125150;28;20024;-62
2023/06/29 01:58:55;;;;;;;31.33;22.50;;;;;;;20.30;85.65;101432.91;5111459;28;20027;-62
2023/06/29 02:01:21;;;;;;;22.50;18.90;;;;;;;20.32;85.89;101435.47;5112090;28;20019;-62
2023/06/29 02:03:47;;;;;;;23.52;20.45;;;;;;;20.29;85.67;101436.59;5093941;28;20030;-62
2023/06/29 02:06:12;;;;;;;25.00;21.05;;;;;;;20.22;85.66;101423.84;5112044;28;20034;-62
2023/06/29 02:08:38;;;;;;;24.00;20.80;;;;;;;20.26;85.18;101431.50;5101151;28;20027;-62
2023/06/29 02:11:06;;;;;;;23.38;20.88;;;;;;;20.16;86.32;101425.28;5132277;28;20015;-62
2023/06/29 02:13:32;;;;;;;26.75;22.80;;;;;;;20.20;85.08;101426.66;5119492;28;20687;-62
2023/06/29 02:15:57;;;;;;;26.95;22.92;;;;;;;20.18;85.41;101424.13;5111749;28;20114;-62
2023/06/29 02:18:23;;;;;;;25.83;21.55;;;;;;;20.13;85.47;101418.31;5093639;28;20019;-62
2023/06/29 02:20:51;;;;;;;27.25;22.88;;;;;;;20.17;85.91;101419.69;5111846;28;20049;-62
2023/06/29 02:23:16;;;;;;;26.05;21.48;;;;;;;20.23;85.09;101420.13;5093064;28;20156;-62
2023/06/29 02:25:42;;;;;;;26.77;21.73;;;;;;;20.17;86.19;101418.84;5094115;28;20114;-62
2023/06/29 02:28:07;;;;;;;27.00;22.40;;;;;;;20.09;85.60;101416.91;5111365;28;20036;-62
2023/06/29 02:30:32;;;;;;;24.63;21.50;;;;;;;20.22;85.63;101413.03;5111939;28;20034;-62
2023/06/29 02:32:58;;;;;;;30.45;21.98;;;;;;;20.20;85.82;101413.16;5093597;28;20485;-62
2023/06/29 02:35:23;;;;;;;25.10;20.85;;;;;;;20.15;86.74;101408.22;5111364;28;20028;-62
2023/06/29 02:37:51;;;;;;;26.15;21.58;;;;;;;20.15;85.84;101408.22;5111967;28;20035;-62
2023/06/29 02:40:16;;;;;;;28.85;23.50;;;;;;;20.13;85.70;101406.66;5111203;28;20036;-62
2023/06/29 02:42:42;;;;;;;31.38;22.88;;;;;;;20.11;85.88;101409.47;5112126;28;20489;-62
2023/06/29 02:45:08;;;;;;;28.90;22.42;;;;;;;20.07;86.23;101408.09;5093303;28;20019;-62
2023/06/29 02:47:33;;;;;;;34.15;23.65;;;;;;;20.05;85.95;101396.56;5111529;28;20020;-62
2023/06/29 02:49:59;;;;;;;30.80;23.13;;;;;;;20.03;86.52;101401.28;5111745;28;20019;-62
2023/06/29 02:52:25;;;;;;;31.13;24.42;;;;;;;20.04;86.30;101402.13;5096043;28;20047;-62
2023/06/29 02:54:50;;;;;;;32.88;24.83;;;;;;;20.04;87.03;101397.56;5096620;28;20489;-61
2023/06/29 02:57:16;;;;;;;31.55;24.38;;;;;;;19.99;86.72;101397.16;5096441;28;20032;-61
2023/06/29 02:59:41;;;;;;;31.92;26.02;;;;;;;19.99;86.93;101391.75;5097743;28;20047;-61
2023/06/29 03:02:07;;;;;;;32.05;25.58;;;;;;;20.04;87.03;101394.03;5100418;28;20356;-62
2023/06/29 03:04:32;;;;;;;31.75;24.98;;;;;;;20.04;87.07;101394.03;5110422;28;20031;-62
2023/06/29 03:06:57;;;;;;;30.75;24.77;;;;;;;20.00;87.34;101398.00;5106391;28;20023;-63
2023/06/29 03:09:23;;;;;;;35.05;25.95;;;;;;;20.03;87.19;101390.47;5095403;28;20062;-62
2023/06/29 03:11:51;;;;;;;27.63;24.67;;;;;;;20.02;87.25;101396.84;5095407;28;20514;-62
2023/06/29 03:14:16;;;;;;;30.13;25.05;;;;;;;20.04;87.33;101391.31;5112579;28;20020;-62
2023/06/29 03:16:42;;;;;;;34.15;24.98;;;;;;;20.04;87.85;101394.88;5104149;28;20046;-62
2023/06/29 03:19:07;;;;;;;29.60;25.95;;;;;;;20.00;87.62;101392.59;5090188;28;20030;-62
2023/06/29 03:21:32;;;;;;;31.48;25.25;;;;;;;20.03;87.96;101390.47;5111940;28;20035;-62
2023/06/29 03:23:58;;;;;;;30.33;24.45;;;;;;;19.97;88.93;101391.03;5106839;28;20102;-62
2023/06/29 03:26:26;;;;;;;29.80;25.35;;;;;;;19.99;88.61;101389.03;5113557;28;20031;-62
2023/06/29 03:28:51;;;;;;;30.77;26.27;;;;;;;20.02;88.01;101382.50;5086078;28;20031;-62
2023/06/29 03:31:16;;;;;;;34.83;26.40;;;;;;;19.91;88.50;101370.88;5106679;28;20023;-62
2023/06/29 03:33:43;;;;;;;31.50;26.33;;;;;;;19.90;89.16;101377.25;5115055;27;20024;-62
2023/06/29 03:36:11;;;;;;;29.70;25.80;;;;;;;19.94;88.88;101381.41;5114808;28;20051;-62
2023/06/29 03:38:36;;;;;;;33.70;27.63;;;;;;;19.91;88.35;101368.19;5095515;28;20042;-62
2023/06/29 03:41:02;;;;;;;33.78;27.48;;;;;;;20.00;88.96;101379.97;5114319;28;20330;-62
2023/06/29 03:43:27;;;;;;;33.08;28.33;;;;;;;20.01;88.33;101375.41;5112441;28;20043;-62
2023/06/29 03:45:52;;;;;;;32.95;27.80;;;;;;;19.97;89.17;101382.94;5114428;28;20153;-62
2023/06/29 03:48:20;;;;;;;32.72;27.55;;;;;;;19.95;89.70;101380.38;5114055;28;20031;-62
2023/06/29 03:50:46;;;;;;;33.58;28.45;;;;;;;19.92;88.79;101377.97;5115192;27;20148;-62
2023/06/29 03:53:13;;;;;;;34.50;27.77;;;;;;;19.96;89.08;101375.84;5095449;28;20083;-62
2023/06/29 03:55:39;;;;;;;37.60;29.25;;;;;;;19.97;88.44;101380.22;5095728;28;20383;-62
2023/06/29 03:58:04;;;;;;;36.17;28.98;;;;;;;19.86;88.94;101366.91;5113842;28;20053;-62
2023/06/29 04:00:29;;;;;;;33.28;27.92;;;;;;;19.87;89.41;101363.22;5113122;28;20114;-62
2023/06/29 04:02:55;;;;;;;33.67;27.70;;;;;;;19.94;89.36;101365.19;5112483;28;20081;-62
2023/06/29 04:05:20;;;;;;;38.53;27.83;;;;;;;19.93;89.49;101368.03;5109702;28;20047;-62
2023/06/29 04:07:45;;;;;;;37.03;28.85;;;;;;;19.90;89.44;101366.47;5089646;28;20094;-62
2023/06/29 04:10:11;;;;;;;33.80;28.48;;;;;;;19.99;89.20;101369.28;5094042;28;20700;-62
2023/06/29 04:12:36;;;;;;;34.70;27.40;;;;;;;19.93;89.33;101359.91;5085127;28;20020;-62
2023/06/29 04:15:02;;;;;;;36.67;28.52;;;;;;;19.94;89.55;101359.78;5077854;28;20036;-62
2023/06/29 04:17:27;;;;;;;35.33;27.55;;;;;;;19.89;89.62;101351.28;5103428;28;20034;-62
2023/06/29 04:19:53;;;;;;;35.65;28.30;;;;;;;19.92;89.38;101359.06;5112661;28;20489;-62
2023/06/29 04:22:18;;;;;;;37.10;28.58;;;;;;;19.91;89.61;101359.22;5109655;28;20028;-62
2023/06/29 04:24:43;;;;;;;30.90;26.90;;;;;;;19.90;89.71;101358.38;5113168;27;20131;-62
2023/06/29 04:27:10;;;;;;;33.30;26.88;;;;;;;19.93;89.80;101352.66;5095296;28;20084;-62
2023/06/29 04:29:35;;;;;;;36.13;28.65;;;;;;;19.93;89.32;101354.53;5095251;28;20020;-62
2023/06/29 04:32:03;;;;;;;33.42;26.92;;;;;;;20.02;89.39;101358.19;5113631;28;20493;-62
2023/06/29 04:34:29;;;;;;;38.45;30.27;;;;;;;19.97;89.54;101350.53;5113184;28;20019;-62
2023/06/29 04:36:56;;;;;;;34.30;28.50;;;;;;;19.99;89.83;101361.19;5113168;28;20413;-62
2023/06/29 04:39:21;;;;;;;35.30;27.75;;;;;;;19.99;89.99;101355.78;5112547;28;20036;-62
2023/06/29 04:41:47;;;;;;;34.72;27.83;;;;;;;20.00;90.41;101350.25;5113844;27;20027;-62
2023/06/29 04:44:12;;;;;;;33.30;27.67;;;;;;;20.00;89.74;101355.66;5113158;28;20378;-62
2023/06/29 04:46:40;;;;;;;33.22;28.20;;;;;;;19.84;90.62;101350.00;5082543;28;20024;-62
2023/06/29 04:49:06;;;;;;;34.95;28.38;;;;;;;19.87;90.36;101357.81;5099623;28;20028;-62
2023/06/29 04:51:37;;;;;;;34.05;27.25;;;;;;;19.94;90.20;101356.22;5092902;28;20469;-61
2023/06/29 04:54:05;;;;;;;35.25;28.48;;;;;;;19.89;90.46;101348.56;5108093;28;20499;-62
2023/06/29 04:56:30;;;;;;;33.73;28.07;;;;;;;19.87;90.52;101355.09;5106079;28;20015;-62
2023/06/29 04:58:56;;;;;;;36.67;27.73;;;;;;;19.93;90.64;101354.53;5105377;28;20027;-62
2023/06/29 05:01:21;;;;;;;33.60;27.48;;;;;;;19.96;90.89;101349.69;5111072;28;20063;-62
2023/06/29 05:03:46;;;;;;;34.25;27.92;;;;;;;19.98;90.59;101357.66;5087716;28;20038;-62
2023/06/29 05:06:14;;;;;;;35.45;27.77;;;;;;;20.03;90.54;101351.78;5111434;28;20062;-62
2023/06/29 05:08:40;;;;;;;31.55;28.08;;;;;;;19.99;90.44;101361.19;5110700;28;20023;-62
2023/06/29 05:11:06;;;;;;;33.55;27.60;;;;;;;20.03;90.18;101351.78;5110331;28;20035;-62
2023/06/29 05:13:35;;;;;;;32.42;28.60;;;;;;;20.02;90.70;101356.34;5082820;28;20383;-62
2023/06/29 05:16:01;;;;;;;35.15;28.20;;;;;;;20.03;91.05;101349.09;5106124;28;20032;-62
2023/06/29 05:18:27;;;;;;;33.97;28.73;;;;;;;20.03;91.49;101354.50;5092471;28;20020;-62
2023/06/29 05:20:55;;;;;;;35.75;29.45;;;;;;;20.03;90.41;101346.41;5092423;28;20027;-62
2023/06/29 05:23:20;;;;;;;35.28;28.92;;;;;;;20.04;90.34;101346.25;5102998;28;20507;-62
2023/06/29 05:25:46;;;;;;;34.28;27.15;;;;;;;20.08;90.49;101347.66;5100216;28;20024;-62
2023/06/29 05:28:11;;;;;;;38.88;29.85;;;;;;;20.01;90.60;101343.84;5110694;28;20031;-62
2023/06/29 05:30:37;;;;;;;34.42;29.45;;;;;;;20.03;90.58;101346.41;5109699;28;20027;-62
2023/06/29 05:33:03;;;;;;;36.13;29.60;;;;;;;19.99;90.84;101350.41;5110449;28;20027;-62
2023/06/29 05:35:31;;;;;;;38.65;29.10;;;;;;;19.99;90.43;101342.28;5091667;28;20467;-62
2023/06/29 05:37:57;;;;;;;36.25;28.67;;;;;;;19.98;90.78;101343.31;5103190;28;20485;-62
2023/06/29 05:40:24;;;;;;;36.25;29.88;;;;;;;20.02;90.51;101345.53;5107925;28;20036;-62
2023/06/29 05:42:50;;;;;;;36.22;28.92;;;;;;;19.99;91.10;101343.13;5110493;28;20448;-62
2023/06/29 05:45:17;;;;;;;36.50;28.83;;;;;;;20.07;89.85;101337.88;5109765;28;20030;-62
2023/06/29 05:47:45;;;;;;;37.92;28.73;;;;;;;20.12;89.86;101340.13;5112255;28;20031;-62
2023/06/29 05:50:11;;;;;;;34.60;27.52;;;;;;;20.16;89.24;101341.53;5095476;28;20470;-62
2023/06/29 05:52:39;;;;;;;36.85;29.10;;;;;;;20.15;88.63;101340.69;5109517;28;20066;-61
2023/06/29 05:55:04;;;;;;;37.13;29.13;;;;;;;20.19;87.36;101343.94;5111204;28;20459;-62
2023/06/29 05:57:30;;;;;;;35.30;27.25;;;;;;;20.18;87.70;101342.25;5112012;28;20030;-62
2023/06/29 05:59:55;;;;;;;34.55;28.20;;;;;;;20.17;87.59;101333.28;5111777;28;20042;-62
2023/06/29 06:02:21;;;;;;;34.95;27.23;;;;;;;20.25;86.11;101335.25;5105903;28;20102;-62
2023/06/29 06:04:47;;;;;;;34.80;27.48;;;;;;;20.23;86.08;101333.69;5100657;28;20107;-62
2023/06/29 06:07:26;;;;;;;33.72;26.10;;;;;;;20.32;85.53;101339.03;5083944;28;20452;-62
2023/06/29 06:09:52;;;;;;;28.75;25.23;;;;;;;20.36;84.92;101339.63;5110378;28;20031;-62
2023/06/29 06:12:17;;;;;;;32.25;25.88;;;;;;;20.41;85.07;101340.88;5111683;28;20031;-62
2023/06/29 06:14:42;;;;;;;31.05;24.95;;;;;;;20.47;84.44;101346.66;5093413;28;20387;-62
2023/06/29 06:17:08;;;;;;;33.60;26.30;;;;;;;20.47;82.65;101339.44;5092638;28;20451;-62
2023/06/29 06:19:33;;;;;;;28.50;23.98;;;;;;;20.41;82.91;101319.25;5110697;28;20019;-62
2023/06/29 06:22:01;;;;;;;30.20;23.83;;;;;;;20.55;81.43;101336.00;5111397;28;20114;-61
2023/06/29 06:24:26;;;;;;;30.15;23.83;;;;;;;20.57;81.93;101339.41;5090867;28;20027;-62
2023/06/29 06:26:51;;;;;;;26.05;23.05;;;;;;;20.67;81.72;101342.91;5095783;28;20386;-62
2023/06/29 06:29:17;;;;;;;27.92;23.45;;;;;;;20.70;80.86;101337.19;5095424;28;20077;-62
2023/06/29 06:31:42;;;;;;;26.42;22.10;;;;;;;20.75;82.47;101343.00;5077145;28;20020;-61
2023/06/29 06:34:07;;;;;;;27.60;22.63;;;;;;;20.81;80.52;101349.66;5096345;28;20474;-62
2023/06/29 06:36:33;;;;;;;24.35;21.15;;;;;;;20.76;80.45;101344.69;5095456;28;20129;-62
2023/06/29 06:38:59;;;;;;;29.60;21.67;;;;;;;20.77;80.55;101349.13;5107233;28;20028;-62
2023/06/29 06:41:24;;;;;;;26.92;21.17;;;;;;;20.83;78.95;101337.69;5094894;28;20024;-62
2023/06/29 06:43:49;;;;;;;25.50;22.83;;;;;;;20.81;78.21;101333.44;5128524;27;20035;-62
2023/06/29 06:46:15;;;;;;;26.33;21.55;;;;;;;20.79;79.74;101332.72;5097131;28;20156;-62
2023/06/29 06:48:40;;;;;;;27.55;21.63;;;;;;;20.83;78.13;101336.84;5114958;28;20023;-62
2023/06/29 06:51:05;;;;;;;25.63;22.85;;;;;;;20.82;78.50;101335.13;5115474;28;20023;-62
2023/06/29 06:53:31;;;;;;;25.17;22.10;;;;;;;21.03;77.98;101341.13;5092994;28;20055;-62
2023/06/29 06:55:56;;;;;;;27.08;22.80;;;;;;;21.16;77.36;101335.34;5093291;28;20036;-62
2023/06/29 06:58:22;;;;;;;27.95;21.40;;;;;;;21.24;76.94;101338.13;5094837;28;20486;-62
2023/06/29 07:00:48;;;;;;;28.58;22.48;;;;;;;21.31;74.98;101341.06;5095035;28;20544;-62
2023/06/29 07:03:13;;;;;;;28.27;22.42;;;;;;;21.46;75.66;101335.97;5093319;28;20024;-63
2023/06/29 07:05:39;;;;;;;28.05;23.27;;;;;;;21.59;74.02;101331.03;5094699;28;20103;-62
2023/06/29 07:08:04;;;;;;;27.15;23.27;;;;;;;21.61;72.89;101330.88;5094464;28;20028;-63
2023/06/29 07:10:30;;;;;;;26.48;23.00;;;;;;;21.78;73.11;101324.56;5094829;28;20463;-62
2023/06/29 07:12:55;;;;;;;28.80;23.65;;;;;;;21.82;70.88;101331.34;5093519;28;20035;-63
2023/06/29 07:15:20;;;;;;;30.65;23.23;;;;;;;21.89;69.88;101334.31;5092769;28;20024;-63
2023/06/29 07:17:48;;;;;;;29.20;22.73;;;;;;;22.08;70.26;101336.78;5094368;28;20111;-62
2023/06/29 07:20:14;;;;;;;29.63;22.20;;;;;;;22.08;68.64;101342.19;5094469;28;20054;-62
2023/06/29 07:22:39;;;;;;;25.27;21.05;;;;;;;22.17;68.67;101335.00;5093364;28;20020;-62
2023/06/29 07:25:07;;;;;;;26.90;23.13;;;;;;;22.16;66.86;101338.69;5092302;28;20107;-62
2023/06/29 07:27:32;;;;;;;27.90;23.30;;;;;;;22.11;67.10;101333.75;5080585;28;20189;-62
2023/06/29 07:29:58;;;;;;;26.25;23.08;;;;;;;22.12;66.00;101327.34;5085682;28;20131;-62
2023/06/29 07:32:23;;;;;;;27.35;22.23;;;;;;;22.27;66.46;101332.19;5093568;28;20036;-63
2023/06/29 07:34:48;;;;;;;27.80;22.90;;;;;;;22.27;66.03;101337.63;5093094;28;20429;-62
2023/06/29 07:37:14;;;;;;;27.70;22.00;;;;;;;22.23;65.30;101327.06;5092892;28;20039;-63
2023/06/29 07:39:39;;;;;;;26.30;22.13;;;;;;;22.11;66.10;101331.03;5091973;28;20502;-63
2023/06/29 07:42:05;;;;;;;26.17;22.77;;;;;;;22.10;66.42;101323.94;5081151;28;20481;-62
2023/06/29 07:44:30;;;;;;;28.73;23.58;;;;;;;22.19;65.11;101330.28;5091754;28;20035;-62
2023/06/29 07:46:59;;;;;;;27.42;23.00;;;;;;;22.20;63.71;101329.25;5091492;28;20039;-63
2023/06/29 07:49:24;;;;;;;26.23;23.20;;;;;;;22.35;64.23;101329.50;5092883;28;20584;-62
2023/06/29 07:51:49;;;;;;;28.38;23.05;;;;;;;22.34;63.70;101320.53;5094260;28;20035;-62
2023/06/29 07:54:16;;;;;;;29.00;23.83;;;;;;;22.40;64.97;101327.16;5073452;28;20028;-63
2023/06/29 07:56:42;;;;;;;31.83;23.27;;;;;;;22.44;65.12;101320.41;5095190;28;20443;-62
2023/06/29 07:59:10;;;;;;;30.23;23.48;;;;;;;22.38;63.90;101327.34;5088524;28;20047;-62
2023/06/29 08:01:38;;;;;;;29.50;23.15;;;;;;;22.37;63.87;101327.50;5094844;28;20085;-62
2023/06/29 08:04:03;;;;;;;28.63;22.23;;;;;;;22.38;65.02;101324.63;5092640;28;20493;-62
2023/06/29 08:06:31;;;;;;;39.35;23.75;;;;;;;22.34;65.03;101317.81;5112981;27;20028;-62
2023/06/29 08:09:00;;;;;;;34.55;24.00;;;;;;;22.29;63.88;101319.31;5095098;28;20024;-62
2023/06/29 08:11:26;;;;;;;;;;;;;;;22.40;64.84;101319.03;5113564;28;20076;-62
2023/06/29 08:13:51;;;;;;;27.70;23.52;;;;;;;22.29;63.56;101322.03;5112705;28;20402;-62
2023/06/29 08:16:16;;;;;;;29.25;24.45;;;;;;;22.27;64.53;101318.66;5113171;28;20019;-62
2023/06/29 08:18:42;;;;;;;32.63;24.92;;;;;;;22.31;63.68;101318.16;5113736;28;20492;-62
2023/06/29 08:21:10;;;;;;;28.70;24.70;;;;;;;22.39;63.98;101317.34;5114142;28;20179;-62
2023/06/29 08:23:35;;;;;;;28.00;23.90;;;;;;;22.42;64.46;101315.16;5112896;28;20106;-62
2023/06/29 08:26:01;;;;;;;31.48;23.95;;;;;;;22.48;63.60;101320.94;5095337;28;20078;-62
2023/06/29 08:28:26;;;;;;;30.55;23.63;;;;;;;22.64;63.61;101323.69;5113473;28;20443;-62
2023/06/29 08:30:52;;;;;;;29.60;24.05;;;;;;;22.61;63.58;101324.03;5095088;28;20028;-62
2023/06/29 08:33:17;;;;;;;29.33;24.48;;;;;;;22.54;62.84;101318.41;5112796;28;20024;-62
2023/06/29 08:35:43;;;;;;;29.55;23.98;;;;;;;22.53;63.15;101326.69;5104227;28;20054;-62
2023/06/29 08:38:11;;;;;;;28.33;23.95;;;;;;;22.53;62.62;101332.13;5092536;28;20123;-62
2023/06/29 08:40:39;;;;;;;30.73;24.33;;;;;;;22.63;61.64;101324.72;5092961;28;20024;-62
2023/06/29 08:43:04;;;;;;;30.30;25.80;;;;;;;22.74;61.59;101321.72;5108294;28;20538;-62
2023/06/29 08:45:29;;;;;;;32.35;25.48;;;;;;;22.90;61.72;101324.47;5093597;28;20020;-62
2023/06/29 08:47:56;;;;;;;33.22;25.98;;;;;;;23.14;61.65;101314.69;5092836;28;20032;-62
2023/06/29 08:50:27;;;;;;;44.33;26.00;;;;;;;23.17;61.63;101324.38;5092699;28;20024;-62
2023/06/29 08:52:57;;;;;;;29.95;25.80;;;;;;;23.35;61.96;101306.94;5094962;28;20048;-63
2023/06/29 08:55:23;;;;;;;38.75;26.35;;;;;;;23.56;62.62;101314.56;5112508;28;20020;-63
2023/06/29 08:57:49;;;;;;;33.35;26.42;;;;;;;23.65;59.72;101301.84;5113089;28;20394;-63
2023/06/29 09:00:15;;;;;;;31.65;25.35;;;;;;;24.05;60.51;101302.78;5112661;28;20031;-62
2023/06/29 09:02:41;;;;;;;32.50;25.65;;;;;;;24.19;58.42;101310.22;5094701;28;20433;-62
2023/06/29 09:05:07;;;;;;;30.73;24.15;;;;;;;24.38;58.77;101308.13;5093630;28;20012;-62
2023/06/29 09:07:34;;;;;;;32.55;25.55;;;;;;;24.29;57.17;101299.13;5091005;28;20024;-61
2023/06/29 09:10:04;;;;;;;29.25;24.70;;;;;;;24.38;58.97;101313.56;5107665;28;20016;-64
2023/06/29 09:12:30;;;;;;;28.05;23.73;;;;;;;24.30;56.74;101309.00;5109907;28;20046;-64
2023/06/29 09:14:57;;;;;;;30.92;24.48;;;;;;;24.19;57.50;101310.22;5112250;28;20462;-64
2023/06/29 09:17:22;;;;;;;28.40;24.23;;;;;;;24.11;56.92;101312.13;5094289;28;20533;-65
2023/06/29 09:19:57;;;;;;;32.10;24.38;;;;;;;23.99;57.55;101311.63;5094521;28;20106;-64
2023/06/29 09:22:26;;;;;;;30.33;24.33;;;;;;;23.82;57.88;101296.38;5112722;28;20442;-65
2023/06/29 09:24:56;;;;;;;27.42;23.05;;;;;;;23.89;58.31;101308.28;5077879;28;20418;-68
2023/06/29 09:27:25;;;;;;;31.85;24.55;;;;;;;23.75;59.54;101296.25;5112648;28;20028;-66
2023/06/29 09:29:52;;;;;;;31.85;23.42;;;;;;;23.86;59.89;101308.63;5093873;28;20088;-66
2023/06/29 09:32:20;;;;;;;28.35;23.13;;;;;;;23.93;59.89;101310.47;5110520;28;20023;-67
2023/06/29 09:34:47;;;;;;;30.77;23.67;;;;;;;23.90;59.48;101302.66;5091912;28;20023;-67
2023/06/29 09:37:16;;;;;;;29.13;24.65;;;;;;;23.86;59.18;101300.47;5092212;28;20040;-66
2023/06/29 09:40:04;;;;;;;29.63;25.35;;;;;;;24.02;60.27;101303.13;5091696;28;20552;-67
2023/06/29 09:42:36;;;;;;;33.20;26.30;;;;;;;23.88;60.15;101301.97;5092414;28;20106;-68
2023/06/29 09:45:07;;;;;;;31.42;24.52;;;;;;;23.89;59.82;101311.00;5092039;28;20035;-67
2023/06/29 09:47:33;;;;;;;31.67;26.52;;;;;;;23.73;58.35;101303.69;5091703;28;20533;-67
2023/06/29 09:49:58;;;;;;;32.72;26.08;;;;;;;23.66;57.63;101316.25;5091768;28;20031;-66
2023/06/29 09:52:23;;;;;;;31.58;26.70;;;;;;;23.53;57.36;101308.59;5094210;28;20051;-62
2023/06/29 09:54:51;;;;;;;30.45;26.05;;;;;;;23.49;58.49;101305.38;5091040;28;20490;-62
2023/06/29 09:57:18;;;;;;;32.95;25.92;;;;;;;23.48;59.23;101308.28;5092025;28;20032;-62
2023/06/29 09:59:46;;;;;;;33.92;26.02;;;;;;;23.46;59.33;101300.28;5112919;28;20019;-62
2023/06/29 10:02:12;;;;;;;34.92;25.65;;;;;;;23.53;58.93;101305.88;5100611;28;20053;-62
2023/06/29 10:04:40;;;;;;;34.00;27.05;;;;;;;23.49;60.19;101310.81;5117074;28;20530;-66
2023/06/29 10:07:10;;;;;;;45.67;27.10;;;;;;;23.53;60.18;101301.34;5100838;28;20023;-66
2023/06/29 10:09:37;;;;;;;31.63;26.40;;;;;;;23.65;60.52;101309.97;5118358;28;20034;-69
2023/06/29 10:12:05;;;;;;;34.10;26.65;;;;;;;23.67;59.69;101299.78;5115114;28;20063;-69
2023/06/29 10:14:33;;;;;;;35.53;28.70;;;;;;;23.62;59.33;101299.47;5098327;28;20024;-67
2023/06/29 10:17:01;;;;;;;35.33;27.00;;;;;;;23.65;59.90;101309.09;5096665;28;20403;-67
2023/06/29 10:19:28;;;;;;;33.42;27.38;;;;;;;23.64;59.33;101299.28;5093310;28;20030;-67
2023/06/29 10:21:57;;;;;;;31.73;27.42;;;;;;;23.69;58.68;101311.31;5098253;28;20044;-66
2023/06/29 10:24:29;;;;;;;34.88;27.80;;;;;;;23.85;58.63;101313.19;5110455;28;20115;-64
2023/06/29 10:26:57;;;;;;;33.05;26.45;;;;;;;23.81;58.45;101303.69;5099121;28;20027;-66
2023/06/29 10:29:23;;;;;;;;;;;;;;;24.10;59.08;101305.00;5118998;28;20063;-66
2023/06/29 10:31:48;;;;;;;33.67;26.50;;;;;;;23.84;58.48;101299.78;5118024;28;19942;-65
2023/06/29 10:34:14;;;;;;;33.10;26.67;;;;;;;23.91;58.80;101315.22;5082144;28;20359;-66
2023/06/29 10:36:45;;;;;;;32.42;26.33;;;;;;;23.69;59.24;101308.59;5100520;28;20032;-65
2023/06/29 10:39:43;;;;;;;35.47;26.73;;;;;;;23.76;60.13;101304.19;5113093;28;20020;-66
2023/06/29 10:42:12;;;;;;;34.88;27.08;;;;;;;23.77;59.84;101313.22;5099289;28;20015;-66
2023/06/29 10:44:40;;;;;;;34.63;27.90;;;;;;;23.68;60.03;101304.19;5098215;28;20016;-67
2023/06/29 10:47:05;;;;;;;36.42;28.40;;;;;;;23.69;61.21;101305.88;5080061;28;20024;-65
2023/06/29 10:49:31;;;;;;;36.63;27.80;;;;;;;23.62;60.91;101302.19;5098313;28;20099;-61
2023/06/29 10:52:07;;;;;;;36.65;28.92;;;;;;;23.49;61.78;101297.25;5098110;28;20104;-62
2023/06/29 10:54:32;;;;;;;35.17;28.30;;;;;;;23.46;61.73;101299.44;5113811;28;20114;-61
2023/06/29 10:57:00;;;;;;;39.15;28.98;;;;;;;23.39;60.89;101301.16;5118654;27;20039;-61
2023/06/29 10:59:31;;;;;;;37.53;28.65;;;;;;;23.41;61.54;101297.22;5085460;28;20554;-61
2023/06/29 11:01:57;;;;;;;36.95;28.50;;;;;;;23.48;61.67;101290.13;5099731;28;20035;-62
2023/06/29 11:04:26;;;;;;;37.95;28.25;;;;;;;23.52;60.34;101296.06;5111614;28;20027;-63
2023/06/29 11:06:52;;;;;;;32.90;27.58;;;;;;;23.47;60.34;101302.00;5115344;28;20393;-63